createdAt,value
2023-04-27T00:02:03.130Z,41.75
2023-04-27T00:04:34.983Z,38.33
2023-04-27T00:07:05.456Z,32.80
2023-04-27T00:09:37.024Z,29.55
2023-04-27T00:12:06.917Z,38.00
2023-04-27T00:14:37.370Z,41.75
2023-04-27T00:17:08.209Z,35.05
2023-04-27T00:19:38.528Z,38.63
2023-04-27T00:22:09.232Z,36.45
2023-04-27T00:24:42.273Z,38.67
2023-04-27T00:27:14.316Z,30.48
2023-04-27T00:29:44.581Z,38.58
2023-04-27T00:32:13.427Z,33.45
2023-04-27T00:34:41.928Z,29.20
2023-04-27T00:37:10.168Z,30.05
2023-04-27T00:39:39.546Z,31.70
2023-04-27T00:42:11.480Z,23.50
2023-04-27T00:44:40.027Z,32.28
2023-04-27T00:47:08.242Z,33.22
2023-04-27T00:49:36.358Z,38.97
2023-04-27T00:52:04.376Z,40.50
2023-04-27T00:54:32.955Z,37.00
2023-04-27T00:57:02.498Z,36.45
2023-04-27T00:59:30.917Z,36.30
2023-04-27T01:01:59.188Z,31.65
2023-04-27T01:04:28.876Z,36.28
2023-04-27T01:06:57.669Z,32.40
2023-04-27T01:09:26.526Z,40.13
2023-04-27T01:11:54.550Z,38.42
2023-04-27T01:14:24.132Z,38.15
2023-04-27T01:16:52.928Z,39.60
2023-04-27T01:19:21.127Z,33.95
2023-04-27T01:21:49.424Z,39.03
2023-04-27T01:24:19.740Z,24.88
2023-04-27T01:26:47.955Z,38.30
2023-04-27T01:29:16.129Z,32.15
2023-04-27T01:31:44.338Z,21.45
2023-04-27T01:34:12.487Z,30.70
2023-04-27T01:36:40.702Z,32.85
2023-04-27T01:39:09.983Z,34.75
2023-04-27T01:41:39.403Z,43.20
2023-04-27T01:44:07.970Z,26.73
2023-04-27T01:46:36.211Z,31.65
2023-04-27T01:49:04.485Z,35.70
2023-04-27T01:51:33.150Z,35.10
2023-04-27T01:54:01.243Z,41.00
2023-04-27T01:56:29.302Z,31.63
2023-04-27T01:58:58.754Z,36.58
2023-04-27T02:01:26.942Z,33.05
2023-04-27T02:03:55.407Z,40.65
2023-04-27T02:06:23.736Z,34.35
2023-04-27T02:08:51.952Z,37.05
2023-04-27T02:11:20.090Z,37.97
2023-04-27T02:13:48.941Z,43.60
2023-04-27T02:16:18.553Z,34.78
2023-04-27T02:18:46.988Z,34.70
2023-04-27T02:21:17.349Z,40.25
2023-04-27T02:23:48.208Z,40.92
2023-04-27T02:26:22.945Z,35.30
2023-04-27T02:28:54.206Z,43.25
2023-04-27T02:31:26.526Z,39.58
2023-04-27T02:33:54.879Z,32.15
2023-04-27T02:36:22.938Z,31.15
2023-04-27T02:38:54.522Z,39.40
2023-04-27T02:41:22.675Z,42.20
2023-04-27T02:43:51.940Z,41.72
2023-04-27T02:46:20.269Z,31.85
2023-04-27T02:48:49.989Z,32.80
2023-04-27T02:51:20.990Z,34.42
2023-04-27T02:53:49.135Z,38.03
2023-04-27T02:56:17.617Z,38.00
2023-04-27T02:58:46.005Z,34.40
2023-04-27T03:01:14.425Z,35.92
2023-04-27T03:03:42.869Z,32.17
2023-04-27T03:06:12.388Z,33.58
2023-04-27T03:08:40.866Z,38.38
2023-04-27T03:11:09.842Z,29.77
2023-04-27T03:13:42.387Z,34.67
2023-04-27T03:16:12.007Z,29.98
2023-04-27T03:18:41.163Z,37.85
2023-04-27T03:21:10.275Z,32.20
2023-04-27T03:23:40.510Z,39.97
2023-04-27T03:26:09.407Z,33.38
2023-04-27T03:28:37.694Z,33.05
2023-04-27T03:31:07.173Z,37.08
2023-04-27T03:33:35.355Z,33.15
2023-04-27T03:36:04.644Z,38.03
2023-04-27T03:38:33.825Z,24.50
2023-04-27T03:41:03.297Z,41.53
2023-04-27T03:43:31.373Z,39.38
2023-04-27T03:45:59.426Z,45.38
2023-04-27T03:48:27.431Z,32.67
2023-04-27T03:50:55.398Z,32.83
2023-04-27T03:53:23.457Z,32.33
2023-04-27T03:55:51.686Z,35.17
2023-04-27T03:58:21.464Z,31.85
2023-04-27T04:00:49.448Z,34.60
2023-04-27T04:03:17.853Z,27.50
2023-04-27T04:05:47.364Z,31.73
2023-04-27T04:08:15.588Z,31.33
2023-04-27T04:10:43.991Z,26.33
2023-04-27T04:13:12.114Z,32.97
2023-04-27T04:15:41.816Z,36.65
2023-04-27T04:18:10.211Z,33.50
2023-04-27T04:20:38.129Z,28.25
2023-04-27T04:23:06.364Z,33.03
2023-04-27T04:25:34.447Z,31.40
2023-04-27T04:28:02.600Z,36.70
2023-04-27T04:30:30.787Z,27.48
2023-04-27T04:33:00.574Z,35.47
2023-04-27T04:35:28.633Z,21.48
2023-04-27T04:37:56.818Z,33.88
2023-04-27T04:40:25.114Z,34.53
2023-04-27T04:42:53.123Z,37.75
2023-04-27T04:45:21.723Z,35.72
2023-04-27T04:47:50.492Z,38.92
2023-04-27T04:50:20.170Z,35.38
2023-04-27T04:52:48.589Z,35.45
2023-04-27T04:55:17.489Z,29.25
2023-04-27T04:57:45.562Z,39.60
2023-04-27T05:00:14.903Z,39.80
2023-04-27T05:02:43.144Z,33.97
2023-04-27T05:05:11.449Z,29.80
2023-04-27T05:07:40.922Z,33.60
2023-04-27T05:10:09.471Z,26.67
2023-04-27T05:12:37.584Z,49.38
2023-04-27T05:15:06.568Z,35.92
2023-04-27T05:17:34.697Z,29.27
2023-04-27T05:20:02.844Z,33.05
2023-04-27T05:22:31.321Z,36.63
2023-04-27T05:25:01.030Z,45.50
2023-04-27T05:27:29.126Z,33.05
2023-04-27T05:29:57.434Z,37.20
2023-04-27T05:32:25.762Z,37.70
2023-04-27T05:34:53.958Z,42.22
2023-04-27T05:37:22.418Z,30.83
2023-04-27T05:39:50.805Z,33.55
2023-04-27T05:42:20.419Z,34.88
2023-04-27T05:44:48.420Z,33.35
2023-04-27T05:47:16.588Z,32.15
2023-04-27T05:49:45.191Z,36.35
2023-04-27T05:52:13.335Z,43.45
2023-04-27T05:54:41.433Z,46.00
2023-04-27T05:57:09.611Z,47.05
2023-04-27T05:59:39.340Z,36.50
2023-04-27T06:02:08.216Z,46.28
2023-04-27T06:04:37.400Z,44.38
2023-04-27T06:07:10.358Z,49.72
2023-04-27T06:09:38.713Z,40.03
2023-04-27T06:12:08.019Z,38.33
2023-04-27T06:14:38.683Z,52.85
2023-04-27T06:17:08.854Z,40.63
2023-04-27T06:19:36.870Z,40.05
2023-04-27T06:22:04.974Z,36.90
2023-04-27T06:24:33.058Z,46.05
2023-04-27T06:27:01.392Z,43.20
2023-04-27T06:29:29.709Z,41.90
2023-04-27T06:31:59.248Z,44.58
2023-04-27T06:34:27.349Z,41.55
2023-04-27T06:36:55.315Z,40.63
2023-04-27T06:39:23.275Z,44.90
2023-04-27T06:41:51.227Z,40.35
2023-04-27T06:44:19.267Z,41.92
2023-04-27T06:46:47.319Z,39.88
2023-04-27T06:49:16.779Z,50.20
2023-04-27T06:51:46.843Z,36.83
2023-04-27T06:54:15.032Z,41.58
2023-04-27T06:56:43.056Z,46.78
2023-04-27T06:59:11.273Z,50.17
2023-04-27T07:01:40.118Z,50.42
2023-04-27T07:04:08.415Z,59.58
2023-04-27T07:06:38.091Z,30.33
2023-04-27T07:09:13.497Z,43.45
2023-04-27T07:11:48.377Z,36.47
2023-04-27T07:14:16.481Z,37.83
2023-04-27T07:16:45.022Z,40.08
2023-04-27T07:19:13.192Z,51.38
2023-04-27T07:21:42.784Z,38.92
2023-04-27T07:24:10.766Z,38.83
2023-04-27T07:26:39.707Z,34.53
2023-04-27T07:29:22.883Z,38.10
2023-04-27T07:31:55.817Z,52.20
2023-04-27T07:34:24.371Z,47.03
2023-04-27T07:36:55.176Z,36.40
2023-04-27T07:39:24.042Z,51.25
2023-04-27T07:41:52.776Z,33.45
2023-04-27T07:44:21.051Z,37.58
2023-04-27T07:46:50.615Z,45.38
2023-04-27T07:49:20.649Z,39.25
2023-04-27T07:51:50.272Z,38.83
2023-04-27T07:54:21.496Z,34.88
2023-04-27T07:56:50.971Z,49.83
2023-04-27T07:59:20.580Z,57.53
2023-04-27T08:01:49.677Z,48.75
2023-04-27T08:04:20.033Z,43.65
2023-04-27T08:06:49.741Z,50.40
2023-04-27T08:09:22.529Z,35.85
2023-04-27T08:11:52.404Z,46.45
2023-04-27T08:14:22.827Z,39.83
2023-04-27T08:16:53.319Z,36.97
2023-04-27T08:19:21.690Z,26.38
2023-04-27T08:21:49.674Z,40.10
2023-04-27T08:24:17.612Z,31.50
2023-04-27T08:26:47.151Z,31.75
2023-04-27T08:29:26.413Z,39.67
2023-04-27T08:31:57.270Z,37.67
2023-04-27T08:34:25.412Z,33.17
2023-04-27T08:36:53.944Z,25.80
2023-04-27T08:39:22.531Z,28.58
2023-04-27T08:41:52.089Z,38.65
2023-04-27T08:44:20.804Z,43.33
2023-04-27T08:46:48.850Z,42.13
2023-04-27T08:49:17.405Z,41.97
2023-04-27T08:51:46.262Z,39.78
2023-04-27T08:54:14.347Z,41.50
2023-04-27T08:56:42.593Z,33.28
2023-04-27T08:59:17.731Z,36.38
2023-04-27T09:01:49.045Z,35.13
2023-04-27T09:04:20.585Z,57.22
2023-04-27T09:06:51.953Z,33.85
2023-04-27T09:09:25.115Z,39.83
2023-04-27T09:11:54.837Z,33.08
2023-04-27T09:14:27.293Z,40.90
2023-04-27T09:17:01.023Z,42.38
2023-04-27T09:19:33.122Z,38.63
2023-04-27T09:22:09.624Z,35.28
2023-04-27T09:24:40.287Z,44.33
2023-04-27T09:27:10.185Z,44.40
2023-04-27T09:29:42.135Z,45.15
2023-04-27T09:32:21.309Z,53.05
2023-04-27T09:34:53.476Z,44.40
2023-04-27T09:37:24.726Z,42.20
2023-04-27T09:39:55.608Z,39.67
2023-04-27T09:42:26.910Z,48.42
2023-04-27T09:44:59.805Z,52.03
2023-04-27T09:47:30.184Z,50.67
2023-04-27T09:50:03.748Z,56.58
2023-04-27T09:52:34.354Z,42.47
2023-04-27T09:55:05.635Z,45.88
2023-04-27T09:57:41.505Z,46.88
2023-04-27T10:00:30.607Z,49.55
2023-04-27T10:03:10.007Z,44.95
2023-04-27T10:06:08.820Z,48.38
2023-04-27T10:08:39.023Z,52.38
2023-04-27T10:11:17.189Z,48.28
2023-04-27T10:13:55.187Z,39.22
2023-04-27T10:16:26.850Z,35.45
2023-04-27T10:18:57.336Z,46.30
2023-04-27T10:21:28.450Z,39.22
2023-04-27T10:23:57.565Z,41.35
2023-04-27T10:26:27.301Z,40.88
2023-04-27T10:29:08.667Z,43.47
2023-04-27T10:31:45.633Z,60.90
2023-04-27T10:34:21.864Z,55.17
2023-04-27T10:36:51.237Z,41.13
2023-04-27T10:39:39.650Z,55.03
2023-04-27T10:42:15.492Z,58.80
2023-04-27T10:44:45.779Z,48.78
2023-04-27T10:47:19.967Z,56.38
2023-04-27T10:49:51.805Z,57.05
2023-04-27T10:52:21.061Z,56.95
2023-04-27T10:54:51.080Z,53.08
2023-04-27T10:57:20.458Z,55.42
2023-04-27T10:59:51.639Z,60.90
2023-04-27T11:02:28.069Z,63.03
2023-04-27T11:04:59.201Z,47.50
2023-04-27T11:07:29.664Z,40.03
2023-04-27T11:09:59.140Z,32.30
2023-04-27T11:12:28.527Z,46.83
2023-04-27T11:15:00.168Z,48.22
2023-04-27T11:17:35.525Z,45.92
2023-04-27T11:20:06.276Z,38.72
2023-04-27T11:22:35.882Z,38.58
2023-04-27T11:25:06.818Z,38.58
2023-04-27T11:27:40.512Z,49.70
2023-04-27T11:30:21.969Z,58.00
2023-04-27T11:32:54.733Z,51.38
2023-04-27T11:35:35.781Z,58.45
2023-04-27T11:38:06.431Z,51.70
2023-04-27T11:40:39.020Z,48.47
2023-04-27T11:43:09.365Z,54.67
2023-04-27T11:45:43.433Z,47.35
2023-04-27T11:48:17.528Z,50.50
2023-04-27T11:50:49.446Z,56.05
2023-04-27T11:53:19.064Z,61.90
2023-04-27T11:55:54.652Z,52.45
2023-04-27T11:58:23.430Z,50.58
2023-04-27T12:00:55.743Z,54.95
2023-04-27T12:03:27.364Z,58.85
2023-04-27T12:05:56.611Z,52.45
2023-04-27T12:08:25.100Z,51.72
2023-04-27T12:10:53.484Z,45.17
2023-04-27T12:13:21.525Z,58.60
2023-04-27T12:15:49.779Z,61.72
2023-04-27T12:18:17.843Z,61.70
2023-04-27T12:20:47.506Z,49.85
2023-04-27T12:23:15.530Z,46.67
2023-04-27T12:25:44.216Z,48.08
2023-04-27T12:28:17.928Z,43.60
2023-04-27T12:30:46.151Z,42.83
2023-04-27T12:33:14.526Z,50.50
2023-04-27T12:35:42.624Z,43.83
2023-04-27T12:38:12.585Z,40.92
2023-04-27T12:40:40.664Z,42.53
2023-04-27T12:43:09.682Z,46.45
2023-04-27T12:45:37.661Z,49.97
2023-04-27T12:48:06.121Z,39.90
2023-04-27T12:50:39.173Z,43.22
2023-04-27T12:53:07.651Z,42.97
2023-04-27T12:55:38.414Z,49.15
2023-04-27T12:58:06.441Z,49.92
2023-04-27T13:00:34.978Z,47.63
2023-04-27T13:03:03.512Z,54.28
2023-04-27T13:05:32.292Z,73.55
2023-04-27T13:08:00.927Z,52.47
2023-04-27T13:10:29.514Z,40.42
2023-04-27T13:13:01.931Z,34.53
2023-04-27T13:15:30.069Z,52.90
2023-04-27T13:17:59.070Z,42.50
2023-04-27T13:20:27.704Z,48.20
2023-04-27T13:22:56.144Z,38.05
2023-04-27T13:25:24.652Z,48.50
2023-04-27T13:27:54.032Z,50.58
2023-04-27T13:30:23.515Z,43.95
2023-04-27T13:32:51.802Z,42.58
2023-04-27T13:35:20.051Z,48.88
2023-04-27T13:37:48.772Z,50.95
2023-04-27T13:40:17.352Z,48.75
2023-04-27T13:43:23.401Z,26.15
2023-04-27T13:45:56.937Z,38.75
2023-04-27T13:48:27.369Z,46.95
2023-04-27T13:50:56.449Z,38.67
2023-04-27T13:53:26.873Z,41.97
2023-04-27T13:55:55.338Z,43.70
2023-04-27T13:58:25.838Z,49.83
2023-04-27T14:00:56.814Z,31.73
2023-04-27T14:03:25.144Z,33.35
2023-04-27T14:05:53.370Z,27.00
2023-04-27T14:08:21.918Z,38.67
2023-04-27T14:10:50.772Z,47.42
2023-04-27T14:13:19.631Z,58.38
2023-04-27T14:15:47.707Z,52.95
2023-04-27T14:18:19.042Z,47.72
2023-04-27T14:20:47.346Z,51.78
2023-04-27T14:23:15.420Z,38.15
2023-04-27T14:25:43.592Z,36.13
2023-04-27T14:28:12.886Z,32.92
2023-04-27T14:30:41.282Z,30.83
2023-04-27T14:33:48.130Z,24.85
2023-04-27T14:37:11.036Z,26.25
2023-04-27T14:40:50.758Z,17.67
2023-04-27T14:43:19.132Z,43.38
2023-04-27T14:45:52.938Z,40.17
2023-04-27T14:48:23.738Z,30.85
2023-04-27T14:50:52.471Z,31.08
2023-04-27T14:53:25.665Z,30.08
2023-04-27T14:55:54.039Z,35.17
2023-04-27T14:58:22.317Z,44.80
2023-04-27T15:00:55.541Z,34.58
2023-04-27T15:03:23.985Z,38.08
2023-04-27T15:05:52.694Z,35.28
2023-04-27T15:08:26.240Z,31.70
2023-04-27T15:10:58.210Z,46.17
2023-04-27T15:13:27.086Z,38.10
2023-04-27T15:15:57.067Z,37.90
2023-04-27T15:18:26.256Z,55.17
2023-04-27T15:20:58.113Z,46.53
2023-04-27T15:23:30.129Z,59.20
2023-04-27T15:26:00.265Z,33.95
2023-04-27T15:28:33.767Z,48.00
2023-04-27T15:31:02.172Z,39.58
2023-04-27T15:33:32.419Z,49.78
2023-04-27T15:36:02.736Z,54.17
2023-04-27T15:38:34.346Z,38.38
2023-04-27T15:41:02.893Z,41.42
2023-04-27T15:43:31.152Z,49.90
2023-04-27T15:45:59.535Z,46.10
2023-04-27T15:48:27.751Z,52.15
2023-04-27T15:50:56.001Z,25.23
2023-04-27T15:53:26.319Z,31.02
2023-04-27T15:55:57.999Z,30.27
2023-04-27T15:58:26.852Z,34.33
2023-04-27T16:00:56.521Z,27.63
2023-04-27T16:03:28.166Z,37.03
2023-04-27T16:05:59.249Z,38.50
2023-04-27T16:08:28.280Z,31.48
2023-04-27T16:10:58.095Z,37.45
2023-04-27T16:13:27.275Z,43.33
2023-04-27T16:15:58.368Z,31.55
2023-04-27T16:18:29.153Z,41.28
2023-04-27T16:20:59.812Z,39.83
2023-04-27T16:23:32.644Z,41.85
2023-04-27T16:26:08.968Z,39.63
2023-04-27T16:28:38.987Z,48.22
2023-04-27T16:31:07.368Z,37.33
2023-04-27T16:33:36.251Z,47.40
2023-04-27T16:36:04.563Z,40.55
2023-04-27T16:38:32.879Z,38.58
2023-04-27T16:41:02.757Z,43.00
2023-04-27T16:43:33.448Z,46.38
2023-04-27T16:46:01.861Z,57.83
2023-04-27T16:48:30.437Z,51.17
2023-04-27T16:50:58.948Z,39.10
2023-04-27T16:53:27.209Z,44.53
2023-04-27T16:55:55.204Z,57.38
2023-04-27T16:58:24.585Z,59.28
2023-04-27T17:00:55.817Z,47.03
2023-04-27T17:03:23.919Z,66.53
2023-04-27T17:05:52.732Z,53.55
2023-04-27T17:08:22.198Z,47.47
2023-04-27T17:10:50.474Z,49.85
2023-04-27T17:13:18.707Z,52.83
2023-04-27T17:15:48.550Z,35.58
2023-04-27T17:18:16.774Z,36.30
2023-04-27T17:20:44.973Z,42.75
2023-04-27T17:23:12.967Z,30.65
2023-04-27T17:25:41.593Z,45.10
2023-04-27T17:28:09.720Z,32.15
2023-04-27T17:30:37.893Z,39.38
2023-04-27T17:33:07.652Z,31.52
2023-04-27T17:35:36.050Z,41.42
2023-04-27T17:38:04.089Z,37.92
2023-04-27T17:40:32.344Z,46.45
2023-04-27T17:43:00.464Z,55.10
2023-04-27T17:45:29.264Z,48.10
2023-04-27T17:47:57.323Z,34.30
2023-04-27T17:50:27.413Z,46.40
2023-04-27T17:52:55.729Z,39.42
2023-04-27T17:55:24.858Z,48.47
2023-04-27T17:57:52.941Z,49.17
2023-04-27T18:00:24.115Z,43.45
2023-04-27T18:02:52.239Z,38.38
2023-04-27T18:05:20.649Z,38.35
2023-04-27T18:07:50.279Z,37.58
2023-04-27T18:10:18.422Z,39.65
2023-04-27T18:12:46.486Z,39.38
2023-04-27T18:15:14.865Z,28.75
2023-04-27T18:17:42.941Z,41.05
2023-04-27T18:20:11.658Z,47.67
2023-04-27T18:22:40.278Z,41.60
2023-04-27T18:25:11.868Z,40.08
2023-04-27T18:27:39.771Z,36.20
2023-04-27T18:30:08.965Z,36.75
2023-04-27T18:32:37.099Z,37.92
2023-04-27T18:35:06.513Z,39.42
2023-04-27T18:37:36.203Z,44.45
2023-04-27T18:40:06.002Z,33.22
2023-04-27T18:42:37.717Z,50.45
2023-04-27T18:45:06.831Z,46.70
2023-04-27T18:47:35.158Z,48.42
2023-04-27T18:50:03.219Z,29.38
2023-04-27T18:52:31.456Z,44.20
2023-04-27T18:54:59.439Z,37.75
2023-04-27T18:57:27.529Z,41.47
2023-04-27T18:59:57.534Z,36.45
2023-04-27T19:02:26.324Z,22.90
2023-04-27T19:05:11.378Z,48.20
2023-04-27T19:07:41.363Z,36.15
2023-04-27T19:10:10.495Z,41.10
2023-04-27T19:12:38.664Z,47.03
2023-04-27T19:15:12.049Z,37.85
2023-04-27T19:17:40.313Z,37.60
2023-04-27T19:20:10.470Z,29.92
2023-04-27T19:22:38.780Z,39.45
2023-04-27T19:25:07.713Z,35.45
2023-04-27T19:27:35.842Z,40.75
2023-04-27T19:30:04.393Z,39.63
2023-04-27T19:32:34.693Z,25.55
2023-04-27T19:35:02.830Z,36.88
2023-04-27T19:37:30.911Z,37.70
2023-04-27T19:39:58.977Z,27.30
2023-04-27T19:42:27.427Z,31.45
2023-04-27T19:44:56.118Z,36.38
2023-04-27T19:47:24.730Z,27.40
2023-04-27T19:49:58.906Z,34.50
2023-04-27T19:52:26.983Z,29.20
2023-04-27T19:54:55.900Z,29.08
2023-04-27T19:57:24.304Z,26.58
2023-04-27T19:59:52.398Z,36.47
2023-04-27T20:02:20.574Z,34.20
2023-04-27T20:04:49.015Z,39.45
2023-04-27T20:07:18.555Z,28.23
2023-04-27T20:09:46.625Z,31.45
2023-04-27T20:12:34.829Z,26.55
2023-04-27T20:15:02.683Z,22.10
2023-04-27T20:17:31.451Z,32.35
2023-04-27T20:19:59.502Z,29.73
2023-04-27T20:22:31.918Z,35.10
2023-04-27T20:25:00.285Z,29.33
2023-04-27T20:27:28.468Z,33.10
2023-04-27T20:29:56.578Z,33.47
2023-04-27T20:32:24.962Z,21.80
2023-04-27T20:34:53.279Z,34.08
2023-04-27T20:37:21.345Z,29.73
2023-04-27T20:39:51.711Z,30.92
2023-04-27T20:42:20.984Z,26.80
2023-04-27T20:44:50.687Z,28.35
2023-04-27T20:47:18.643Z,28.45
2023-04-27T20:49:47.261Z,29.92
2023-04-27T20:52:15.819Z,32.33
2023-04-27T20:54:43.942Z,36.05
2023-04-27T20:57:14.892Z,34.50
2023-04-27T20:59:42.838Z,31.63
2023-04-27T21:02:11.101Z,17.85
2023-04-27T21:04:39.681Z,24.65
2023-04-27T21:07:09.959Z,30.17
2023-04-27T21:09:39.018Z,22.55
2023-04-27T21:12:07.579Z,25.60
2023-04-27T21:14:37.592Z,25.25
2023-04-27T21:17:05.738Z,25.13
2023-04-27T21:19:33.810Z,32.65
2023-04-27T21:22:02.120Z,32.22
2023-04-27T21:24:30.230Z,20.83
2023-04-27T21:26:58.335Z,28.08
2023-04-27T21:29:26.309Z,28.42
2023-04-27T21:31:55.774Z,38.67
2023-04-27T21:34:24.206Z,27.88
2023-04-27T21:36:52.381Z,29.45
2023-04-27T21:39:20.550Z,18.25
2023-04-27T21:41:48.469Z,27.27
2023-04-27T21:44:16.700Z,26.23
2023-04-27T21:46:44.923Z,28.20
2023-04-27T21:49:14.287Z,24.17
2023-04-27T21:51:42.333Z,26.33
2023-04-27T21:54:10.462Z,24.67
2023-04-27T21:56:38.938Z,24.80
2023-04-27T21:59:08.085Z,31.67
2023-04-27T22:01:36.709Z,30.95
2023-04-27T22:04:06.044Z,29.58
2023-04-27T22:06:35.937Z,17.13
2023-04-27T22:09:04.769Z,25.13
2023-04-27T22:11:34.581Z,23.88
2023-04-27T22:14:02.689Z,17.45
2023-04-27T22:16:30.768Z,22.63
2023-04-27T22:18:59.746Z,35.25
2023-04-27T22:21:29.197Z,23.30
2023-04-27T22:23:58.954Z,30.85
2023-04-27T22:26:26.969Z,23.33
2023-04-27T22:28:55.061Z,34.42
2023-04-27T22:31:23.344Z,25.10
2023-04-27T22:33:51.484Z,24.58
2023-04-27T22:36:19.501Z,27.67
2023-04-27T22:38:47.413Z,31.15
2023-04-27T22:41:17.147Z,32.20
2023-04-27T22:43:45.096Z,29.05
2023-04-27T22:46:13.118Z,24.63
2023-04-27T22:48:41.957Z,25.55
2023-04-27T22:51:11.016Z,27.95
2023-04-27T22:53:41.488Z,33.28
2023-04-27T22:56:11.863Z,33.55
2023-04-27T22:58:44.639Z,26.30
2023-04-27T23:01:14.347Z,29.45
2023-04-27T23:03:45.254Z,30.77
2023-04-27T23:06:16.134Z,27.73
2023-04-27T23:08:47.801Z,32.20
2023-04-27T23:11:19.478Z,25.67
2023-04-27T23:13:51.197Z,28.83
2023-04-27T23:16:22.528Z,28.98
2023-04-27T23:18:53.932Z,31.70
2023-04-27T23:21:23.459Z,25.85
2023-04-27T23:23:52.958Z,28.00
2023-04-27T23:26:22.545Z,27.83
2023-04-27T23:28:53.983Z,35.75
2023-04-27T23:31:25.229Z,31.10
2023-04-27T23:33:54.560Z,37.05
2023-04-27T23:36:24.406Z,31.70
2023-04-27T23:38:54.202Z,30.23
2023-04-27T23:41:23.818Z,34.53
2023-04-27T23:43:56.136Z,37.35
2023-04-27T23:46:24.162Z,27.58
2023-04-27T23:48:52.201Z,31.08
2023-04-27T23:51:20.468Z,27.30
2023-04-27T23:53:48.437Z,31.98
2023-04-27T23:56:20.206Z,24.45
2023-04-27T23:58:48.484Z,24.90
